Time;durP1;ratioP1;P1;durP2;ratioP2;P2;SDS_P1;SDS_P2;PMS_P1;PMS_P2;Temp;Humidity;BMP_temperature;BMP_pressure;BME280_temperature;BME280_humidity;BME280_pressure;Samples;Min_cycle;Max_cycle;Signal;HPM_P1;HPM_P2
2021/01/23 00:00:58;;;;;;;17.17;8.63;;;1.90;99.90;;;;;;4908028;29;20407;-95
2021/01/23 00:03:24;;;;;;;13.27;8.40;;;1.90;99.90;;;;;;4926814;28;20063;-94
2021/01/23 00:05:49;;;;;;;17.20;9.27;;;1.90;99.90;;;;;;4985640;28;20042;-96
2021/01/23 00:08:15;;;;;;;14.45;8.65;;;1.90;99.90;;;;;;5014766;28;20109;-95
2021/01/23 00:10:43;;;;;;;13.23;8.38;;;1.80;99.90;;;;;;4982844;28;20027;-96
2021/01/23 00:13:09;;;;;;;16.08;7.70;;;1.80;99.90;;;;;;4976170;28;20033;-96
2021/01/23 00:15:34;;;;;;;13.20;8.27;;;1.80;99.90;;;;;;4989399;28;20050;-95
2021/01/23 00:18:00;;;;;;;12.27;7.70;;;1.80;99.90;;;;;;4974257;28;20048;-95
2021/01/23 00:20:26;;;;;;;12.07;7.60;;;1.70;99.90;;;;;;4973710;28;20102;-95
2021/01/23 00:22:52;;;;;;;11.52;7.47;;;1.70;99.90;;;;;;4983610;28;20033;-95
2021/01/23 00:25:17;;;;;;;12.85;8.05;;;1.70;99.90;;;;;;4973214;28;20039;-95
2021/01/23 00:27:43;;;;;;;14.65;7.05;;;1.60;99.90;;;;;;4972656;28;20062;-95
2021/01/23 00:30:09;;;;;;;9.27;6.47;;;1.60;99.90;;;;;;4972457;28;20035;-94
2021/01/23 00:32:35;;;;;;;16.95;7.65;;;1.60;99.90;;;;;;4976441;28;20029;-95
2021/01/23 00:35:02;;;;;;;11.73;7.72;;;1.60;99.90;;;;;;4981707;28;20023;-94
2021/01/23 00:37:27;;;;;;;12.02;7.13;;;1.60;99.90;;;;;;4972655;28;20470;-94
2021/01/23 00:39:53;;;;;;;14.43;6.10;;;1.60;99.90;;;;;;4974594;28;20044;-93
2021/01/23 00:42:18;;;;;;;12.50;7.03;;;1.60;99.90;;;;;;4976355;28;20034;-95
2021/01/23 00:44:44;;;;;;;10.15;6.03;;;1.60;99.90;;;;;;4976813;28;20031;-94
2021/01/23 00:47:10;;;;;;;9.85;5.55;;;1.60;99.90;;;;;;4985920;28;20030;-95
2021/01/23 00:49:35;;;;;;;7.72;5.50;;;1.60;99.90;;;;;;4997337;28;20030;-95
2021/01/23 00:52:01;;;;;;;11.20;5.63;;;1.60;99.90;;;;;;4990542;28;20033;-94
2021/01/23 00:54:27;;;;;;;10.02;6.47;;;1.60;99.90;;;;;;4995224;28;20478;-96
2021/01/23 00:56:52;;;;;;;10.88;6.45;;;1.60;99.90;;;;;;4989380;28;20035;-95
2021/01/23 00:59:18;;;;;;;9.40;6.78;;;1.60;99.90;;;;;;4985427;28;20033;-96
2021/01/23 01:01:44;;;;;;;13.65;7.28;;;1.60;99.90;;;;;;4987782;28;20041;-95
2021/01/23 01:04:10;;;;;;;10.65;6.78;;;1.60;99.90;;;;;;4988513;28;20052;-95
2021/01/23 01:06:35;;;;;;;12.25;8.13;;;1.70;99.90;;;;;;4986390;28;20038;-96
2021/01/23 01:09:01;;;;;;;13.55;8.48;;;1.70;99.90;;;;;;4980637;28;20121;-96
2021/01/23 01:11:27;;;;;;;14.15;9.25;;;1.70;99.90;;;;;;4977699;28;20035;-95
2021/01/23 01:13:53;;;;;;;12.65;9.25;;;1.80;99.90;;;;;;4976747;28;20494;-95
2021/01/23 01:16:18;;;;;;;15.13;10.18;;;1.80;99.90;;;;;;4977073;28;20094;-96
2021/01/23 01:18:44;;;;;;;15.63;10.05;;;1.80;99.90;;;;;;4977019;28;20147;-96
2021/01/23 01:21:10;;;;;;;15.75;10.35;;;1.80;99.90;;;;;;4978558;28;20030;-96
2021/01/23 01:23:36;;;;;;;14.43;9.30;;;1.80;99.90;;;;;;4978260;28;20564;-94
2021/01/23 01:26:02;;;;;;;12.90;8.52;;;1.80;99.90;;;;;;4978573;28;20385;-96
2021/01/23 01:28:28;;;;;;;13.43;8.45;;;1.80;99.90;;;;;;4978097;28;20031;-95
2021/01/23 01:30:53;;;;;;;17.13;9.45;;;1.80;99.90;;;;;;4977869;28;20035;-96
2021/01/23 01:33:19;;;;;;;15.57;8.75;;;1.80;99.90;;;;;;4977862;28;20031;-96
2021/01/23 01:35:53;;;;;;;13.25;9.40;;;1.90;99.90;;;;;;4982857;28;20038;-96
2021/01/23 01:38:19;;;;;;;17.90;9.05;;;1.90;99.90;;;;;;4991253;28;20854;-96
2021/01/23 01:40:45;;;;;;;17.52;8.77;;;1.90;99.90;;;;;;4980531;28;20062;-96
2021/01/23 01:43:11;;;;;;;14.32;8.85;;;1.90;99.90;;;;;;4979442;28;20470;-96
2021/01/23 01:45:36;;;;;;;16.98;8.32;;;1.90;99.90;;;;;;4976611;28;20413;-96
2021/01/23 01:48:02;;;;;;;14.70;8.32;;;1.90;99.90;;;;;;4976717;28;20132;-95
2021/01/23 01:50:28;;;;;;;13.25;8.20;;;1.80;99.90;;;;;;4980405;28;20054;-96
2021/01/23 01:52:54;;;;;;;13.25;7.55;;;1.80;99.90;;;;;;4980137;28;20026;-95
2021/01/23 01:55:31;;;;;;;14.80;6.85;;;1.80;99.90;;;;;;4978982;28;20081;-96
2021/01/23 01:57:57;;;;;;;10.50;6.63;;;1.80;99.90;;;;;;4981170;28;20027;-95
2021/01/23 02:00:24;;;;;;;7.28;5.10;;;1.70;99.90;;;;;;4979860;28;20041;-96
2021/01/23 02:03:17;;;;;;;10.02;5.90;;;1.70;99.90;;;;;;4978911;28;20548;-96
2021/01/23 02:05:58;;;;;;;7.68;5.55;;;1.70;99.90;;;;;;4977747;28;20039;-96
2021/01/23 02:08:48;;;;;;;10.70;6.05;;;1.70;99.90;;;;;;4979162;28;20027;-95
2021/01/23 02:11:31;;;;;;;9.13;6.05;;;1.70;99.90;;;;;;4976951;28;20027;-96
2021/01/23 02:14:29;;;;;;;8.38;5.63;;;1.70;99.90;;;;;;4977064;28;20043;-96
2021/01/23 02:17:00;;;;;;;12.32;5.90;;;1.70;99.90;;;;;;4975836;28;20043;-95
2021/01/23 02:19:32;;;;;;;;;;;1.60;99.90;;;;;;4976271;28;20026;-95
2021/01/23 02:22:16;;;;;;;9.88;5.90;;;1.60;99.90;;;;;;4976383;28;19913;-95
2021/01/23 02:24:46;;;;;;;11.43;5.80;;;1.60;99.90;;;;;;4980546;28;20137;-95
2021/01/23 02:27:34;;;;;;;12.43;7.57;;;1.60;99.90;;;;;;4981489;28;20062;-95
2021/01/23 02:30:28;;;;;;;13.32;7.38;;;1.60;99.90;;;;;;4989356;28;20046;-95
2021/01/23 02:32:58;;;;;;;14.32;7.05;;;1.70;99.90;;;;;;4994813;28;20027;-95
2021/01/23 02:35:28;;;;;;;15.40;8.32;;;1.70;99.90;;;;;;4987487;28;20108;-95
2021/01/23 02:37:56;;;;;;;9.77;6.60;;;1.60;99.90;;;;;;4970927;28;20043;-96
2021/01/23 02:40:48;;;;;;;22.25;9.40;;;1.60;99.90;;;;;;4991654;28;20030;-95
2021/01/23 02:43:31;;;;;;;14.23;8.70;;;1.70;99.90;;;;;;4998702;28;20053;-96
2021/01/23 02:46:27;;;;;;;18.08;9.90;;;1.70;99.90;;;;;;4992533;28;20042;-95
2021/01/23 02:49:04;;;;;;;14.70;9.18;;;1.70;99.90;;;;;;4995087;28;20026;-96
2021/01/23 02:51:57;;;;;;;19.25;9.05;;;1.70;99.90;;;;;;4985558;28;20027;-96
2021/01/23 02:54:36;;;;;;;15.85;9.20;;;1.70;99.90;;;;;;4985487;28;20063;-96
2021/01/23 02:57:11;;;;;;;20.77;9.70;;;1.70;99.90;;;;;;4989745;28;20023;-96
2021/01/23 02:59:45;;;;;;;18.85;8.98;;;1.70;99.90;;;;;;4975331;28;20053;-96
2021/01/23 03:02:16;;;;;;;14.82;8.43;;;1.70;99.90;;;;;;4967814;28;20097;-96
2021/01/23 03:04:43;;;;;;;17.48;10.27;;;1.70;99.90;;;;;;4981146;28;20026;-96
2021/01/23 03:07:13;;;;;;;20.33;10.60;;;1.70;99.90;;;;;;4984200;28;20130;-96
2021/01/23 03:09:38;;;;;;;20.17;9.48;;;1.70;99.90;;;;;;4981322;28;20066;-94
2021/01/23 03:12:05;;;;;;;15.82;8.50;;;1.70;99.90;;;;;;4976898;28;20031;-95
2021/01/23 03:14:30;;;;;;;16.63;8.95;;;1.70;99.90;;;;;;4983165;28;20043;-96
2021/01/23 03:17:01;;;;;;;13.95;8.40;;;1.70;99.90;;;;;;4985129;28;20038;-96
2021/01/23 03:22:41;;;;;;;11.68;7.13;;;1.70;99.90;;;;;;4994827;28;20066;-96
2021/01/23 03:30:20;;;;;;;13.60;8.13;;;1.70;99.90;;;;;;5067975;28;20053;-96
2021/01/23 03:32:52;;;;;;;17.90;8.77;;;1.70;99.90;;;;;;5071394;28;20032;-96
2021/01/23 03:35:27;;;;;;;18.42;9.50;;;1.70;99.90;;;;;;5070723;28;20089;-96
2021/01/23 03:38:13;;;;;;;12.00;7.47;;;1.70;99.90;;;;;;5072719;28;20025;-96
2021/01/23 03:40:41;;;;;;;13.45;8.38;;;1.70;99.90;;;;;;5052114;28;20029;-96
2021/01/23 03:43:08;;;;;;;14.23;8.60;;;1.60;99.90;;;;;;5029424;28;20021;-96
2021/01/23 03:45:34;;;;;;;14.68;9.00;;;1.70;99.90;;;;;;5064781;28;20052;-94
2021/01/23 03:48:02;;;;;;;16.85;9.13;;;1.60;99.90;;;;;;5044014;28;20131;-96
2021/01/23 03:50:30;;;;;;;17.20;8.57;;;1.70;99.90;;;;;;5042475;28;20029;-96
2021/01/23 03:52:57;;;;;;;13.43;8.32;;;1.70;99.90;;;;;;5042604;28;20025;-96
2021/01/23 03:55:24;;;;;;;12.02;7.70;;;1.70;99.90;;;;;;5041252;28;20031;-96
2021/01/23 03:57:50;;;;;;;13.80;8.25;;;1.70;99.90;;;;;;5042374;28;20082;-95
2021/01/23 04:00:18;;;;;;;11.93;7.82;;;1.70;99.90;;;;;;5047370;28;20037;-96
2021/01/23 04:02:54;;;;;;;12.70;7.72;;;1.70;99.90;;;;;;5051243;28;20546;-95
2021/01/23 04:05:24;;;;;;;13.27;7.95;;;1.70;99.90;;;;;;5069414;28;20060;-96
2021/01/23 04:07:57;;;;;;;11.68;7.10;;;1.70;99.90;;;;;;5069609;28;20068;-95
2021/01/23 04:10:26;;;;;;;14.23;8.55;;;1.70;99.90;;;;;;5069791;28;20063;-96
2021/01/23 04:12:52;;;;;;;13.18;7.90;;;1.70;99.90;;;;;;5070331;28;20387;-96
2021/01/23 04:15:27;;;;;;;12.45;7.60;;;1.70;99.90;;;;;;5074750;28;20037;-96
2021/01/23 04:17:55;;;;;;;12.25;7.55;;;1.70;99.90;;;;;;5070473;28;20092;-96
2021/01/23 04:20:22;;;;;;;10.73;6.93;;;1.70;99.90;;;;;;5070965;28;20036;-95
2021/01/23 04:22:49;;;;;;;13.00;7.03;;;1.70;99.90;;;;;;5070610;28;20036;-96
2021/01/23 04:25:25;;;;;;;14.35;8.20;;;1.70;99.90;;;;;;5075117;28;20037;-96
2021/01/23 04:27:54;;;;;;;11.70;7.18;;;1.70;99.90;;;;;;5069811;28;20041;-96
2021/01/23 04:30:20;;;;;;;12.98;7.63;;;1.70;99.90;;;;;;5054623;28;20072;-96
2021/01/23 04:32:49;;;;;;;16.45;8.75;;;1.60;99.90;;;;;;5072463;28;20061;-96
2021/01/23 04:35:16;;;;;;;15.00;8.45;;;1.70;99.90;;;;;;5073676;28;20079;-96
2021/01/23 04:38:23;;;;;;;14.57;8.13;;;1.60;99.90;;;;;;5055828;28;20040;-96
2021/01/23 04:41:27;;;;;;;14.55;8.32;;;1.70;99.90;;;;;;5081254;28;20032;-96
2021/01/23 04:43:53;;;;;;;13.85;8.02;;;1.60;99.90;;;;;;5072268;28;20526;-95
2021/01/23 04:46:25;;;;;;;11.50;7.40;;;1.60;99.90;;;;;;5071887;28;20067;-95
2021/01/23 04:48:54;;;;;;;14.75;8.07;;;1.70;99.90;;;;;;5071410;28;20037;-96
2021/01/23 04:51:22;;;;;;;13.63;7.30;;;1.60;99.90;;;;;;5074818;28;20064;-95
2021/01/23 04:53:57;;;;;;;14.35;7.93;;;1.60;99.90;;;;;;5071647;28;20036;-96
2021/01/23 04:56:27;;;;;;;17.70;9.10;;;1.60;99.90;;;;;;5074875;28;20025;-96
2021/01/23 04:59:01;;;;;;;17.38;8.57;;;1.60;99.90;;;;;;5071102;28;20021;-96
2021/01/23 05:01:29;;;;;;;16.90;10.00;;;1.60;99.90;;;;;;5069918;28;20040;-96
2021/01/23 05:04:04;;;;;;;18.48;10.07;;;1.60;99.90;;;;;;5072846;28;20040;-95
2021/01/23 05:06:32;;;;;;;18.85;11.25;;;1.60;99.90;;;;;;5069456;28;20037;-96
2021/01/23 05:09:04;;;;;;;19.15;10.45;;;1.60;99.90;;;;;;5076239;28;20037;-96
2021/01/23 05:12:06;;;;;;;18.60;8.98;;;1.60;99.90;;;;;;5076553;28;20017;-96
2021/01/23 05:15:01;;;;;;;17.23;10.02;;;1.60;99.90;;;;;;5077829;28;20035;-95
2021/01/23 05:43:45;;;;;;;19.23;8.93;;;1.60;99.90;;;;;;5036219;28;20053;-96
2021/01/23 05:46:30;;;;;;;19.10;9.52;;;1.60;99.90;;;;;;5036789;28;20040;-96
2021/01/23 05:48:57;;;;;;;19.48;9.43;;;1.60;99.90;;;;;;5038595;28;20037;-96
2021/01/23 05:51:24;;;;;;;19.08;9.52;;;1.50;99.90;;;;;;5037345;28;20034;-96
2021/01/23 05:54:03;;;;;;;18.20;8.98;;;1.60;99.90;;;;;;5032560;28;20077;-96
2021/01/23 05:56:31;;;;;;;17.02;8.30;;;1.60;99.90;;;;;;5028380;28;20038;-96
2021/01/23 05:59:00;;;;;;;15.18;7.53;;;1.60;99.90;;;;;;5024641;28;20034;-96
2021/01/23 06:01:28;;;;;;;18.63;8.20;;;1.50;99.90;;;;;;5025355;28;20107;-95
2021/01/23 06:03:57;;;;;;;13.85;6.95;;;1.50;99.90;;;;;;5027566;28;20034;-95
2021/01/23 06:06:26;;;;;;;15.25;7.10;;;1.50;99.90;;;;;;5027402;28;20038;-96
2021/01/23 06:08:56;;;;;;;14.23;6.82;;;1.50;99.90;;;;;;5010224;28;20029;-96
2021/01/23 06:11:34;;;;;;;12.63;6.97;;;1.50;99.90;;;;;;5032524;28;20096;-96
2021/01/23 06:14:42;;;;;;;12.15;5.90;;;1.50;99.90;;;;;;5038493;28;20014;-96
2021/01/23 06:17:08;;;;;;;13.57;6.65;;;1.50;99.90;;;;;;5072845;22;20119;-96
2021/01/23 06:19:38;;;;;;;12.85;6.88;;;1.50;99.90;;;;;;5081444;28;20012;-96
2021/01/23 06:22:04;;;;;;;17.67;7.70;;;1.50;99.90;;;;;;5078416;28;20032;-96
2021/01/23 07:24:15;;;;;;;19.15;8.23;;;1.50;99.90;;;;;;5025301;28;20065;-96
2021/01/23 07:26:41;;;;;;;16.42;7.55;;;1.50;99.90;;;;;;5009692;28;20042;-96
2021/01/23 07:29:11;;;;;;;18.13;7.93;;;1.50;99.90;;;;;;5016835;28;20025;-96
2021/01/23 07:31:39;;;;;;;20.25;8.02;;;1.50;99.90;;;;;;5050716;28;20048;-95
2021/01/23 07:34:12;;;;;;;17.23;7.40;;;1.50;99.90;;;;;;5017049;28;20030;-95
2021/01/23 07:36:41;;;;;;;17.27;7.68;;;1.50;99.90;;;;;;5018426;28;20006;-96
2021/01/23 07:39:10;;;;;;;20.83;8.70;;;1.50;99.90;;;;;;5019465;28;20046;-96
2021/01/23 07:41:48;;;;;;;18.23;7.03;;;1.50;99.90;;;;;;5036268;28;20014;-96
2021/01/23 07:44:15;;;;;;;21.23;7.18;;;1.50;99.90;;;;;;4998813;28;20023;-96
2021/01/23 07:46:48;;;;;;;17.45;7.05;;;1.50;99.90;;;;;;5014478;28;20021;-96
2021/01/23 07:49:22;;;;;;;15.70;7.90;;;1.60;99.90;;;;;;5010256;28;20018;-96
2021/01/23 07:51:49;;;;;;;15.40;6.47;;;1.60;99.90;;;;;;5026425;28;20052;-96
2021/01/23 07:54:15;;;;;;;15.23;7.18;;;1.60;99.90;;;;;;5003135;28;20068;-95
2021/01/23 07:56:59;;;;;;;18.88;8.02;;;1.60;99.90;;;;;;5023036;28;20053;-96
2021/01/23 07:59:43;;;;;;;14.82;7.03;;;1.60;99.90;;;;;;5025140;28;20026;-96
2021/01/23 08:02:09;;;;;;;16.75;7.10;;;1.60;99.90;;;;;;5006107;28;20026;-94
2021/01/23 08:04:36;;;;;;;22.80;7.72;;;1.60;99.90;;;;;;5005008;28;20032;-93
2021/01/23 08:07:29;;;;;;;18.52;7.35;;;1.60;99.90;;;;;;4988982;28;20065;-93
2021/01/23 08:10:13;;;;;;;19.55;7.88;;;1.50;99.90;;;;;;4999882;28;20134;-96
2021/01/23 08:12:42;;;;;;;20.65;8.23;;;1.50;99.90;;;;;;5001307;28;20049;-96
2021/01/23 08:15:12;;;;;;;19.77;8.38;;;1.60;99.90;;;;;;5009230;28;20033;-96
2021/01/23 08:18:13;;;;;;;20.13;7.70;;;1.60;99.90;;;;;;5029255;28;20014;-96
2021/01/23 08:20:39;;;;;;;23.75;9.18;;;1.60;99.90;;;;;;5022831;28;20061;-96
2021/01/23 08:23:13;;;;;;;24.30;8.80;;;1.60;99.90;;;;;;5035466;28;20050;-95
2021/01/23 08:25:49;;;;;;;18.88;8.20;;;1.60;99.90;;;;;;5005755;28;20041;-96
2021/01/23 08:28:17;;;;;;;21.58;9.07;;;1.60;99.90;;;;;;5002760;28;20037;-95
2021/01/23 08:30:43;;;;;;;18.25;7.75;;;1.60;99.90;;;;;;4997758;28;20029;-95
2021/01/23 08:33:11;;;;;;;21.27;8.55;;;1.60;99.90;;;;;;5000883;28;20099;-96
2021/01/23 08:35:39;;;;;;;24.90;9.18;;;1.70;99.90;;;;;;5000410;28;20025;-95
2021/01/23 08:38:09;;;;;;;21.90;8.60;;;1.70;99.90;;;;;;5000898;28;20559;-94
2021/01/23 08:40:35;;;;;;;25.30;9.83;;;1.70;99.90;;;;;;4996382;28;20018;-95
2021/01/23 08:43:00;;;;;;;28.23;10.02;;;1.70;99.90;;;;;;4994987;28;20335;-95
2021/01/23 08:45:26;;;;;;;29.33;11.20;;;1.70;99.90;;;;;;4997828;28;20026;-96
2021/01/23 08:47:56;;;;;;;26.98;10.00;;;1.80;99.90;;;;;;5002715;28;20029;-95
2021/01/23 08:50:22;;;;;;;31.85;11.10;;;1.80;99.90;;;;;;5006015;28;20009;-96
2021/01/23 08:52:48;;;;;;;32.10;11.30;;;1.80;99.90;;;;;;5020093;28;20086;-96
2021/01/23 08:55:14;;;;;;;28.08;11.55;;;1.80;99.90;;;;;;5020097;28;20507;-94
2021/01/23 08:57:41;;;;;;;28.05;11.55;;;1.80;99.90;;;;;;5029449;28;20021;-96
2021/01/23 09:00:09;;;;;;;29.65;12.02;;;1.80;99.90;;;;;;5012566;28;20026;-94
2021/01/23 09:02:35;;;;;;;29.23;11.57;;;1.90;99.90;;;;;;5041416;28;20030;-95
2021/01/23 09:05:01;;;;;;;32.38;12.27;;;1.90;99.90;;;;;;5007016;28;20473;-96
2021/01/23 09:07:27;;;;;;;30.45;12.13;;;1.90;99.90;;;;;;5014151;28;20033;-95
2021/01/23 09:09:53;;;;;;;23.00;9.43;;;1.90;99.90;;;;;;5008054;28;20097;-96
2021/01/23 09:12:19;;;;;;;24.67;10.25;;;1.90;99.90;;;;;;5004193;28;20575;-94
2021/01/23 09:14:47;;;;;;;24.13;9.55;;;1.80;99.90;;;;;;5003327;28;20118;-94
2021/01/23 09:17:14;;;;;;;20.15;8.45;;;1.80;99.90;;;;;;5006402;28;20109;-94
2021/01/23 09:19:40;;;;;;;20.50;9.05;;;1.80;99.90;;;;;;5008109;28;20468;-95
2021/01/23 09:25:05;;;;;;;17.13;7.72;;;1.70;99.90;;;;;;5293252;23;19916;-96
2021/01/23 09:30:08;;;;;;;17.52;7.20;;;1.70;99.90;;;;;;5052540;28;20076;-95
2021/01/23 09:32:34;;;;;;;14.10;6.85;;;1.70;99.90;;;;;;5026100;28;20112;-96
2021/01/23 09:35:09;;;;;;;15.02;7.55;;;1.70;99.90;;;;;;5051890;28;20037;-96
2021/01/23 09:37:49;;;;;;;15.32;7.93;;;1.60;99.90;;;;;;5040561;28;20081;-96
2021/01/23 09:40:22;;;;;;;16.10;7.70;;;1.60;99.90;;;;;;5024813;28;20037;-96
2021/01/23 09:42:48;;;;;;;20.55;8.52;;;1.60;99.90;;;;;;5078457;22;20036;-96
2021/01/23 09:45:14;;;;;;;19.10;8.13;;;1.60;99.90;;;;;;5065686;28;20029;-96
2021/01/23 09:47:40;;;;;;;14.10;6.85;;;1.60;99.90;;;;;;5076394;28;20044;-96
2021/01/23 09:50:07;;;;;;;16.10;7.63;;;1.60;99.90;;;;;;5050652;28;20032;-95
2021/01/23 09:52:34;;;;;;;15.82;7.90;;;1.60;99.90;;;;;;5057412;28;20093;-96
2021/01/23 09:54:59;;;;;;;15.90;7.63;;;1.60;99.90;;;;;;5051103;28;20537;-96
2021/01/23 09:57:27;;;;;;;15.00;7.90;;;1.60;99.90;;;;;;5054295;28;20033;-94
2021/01/23 09:59:53;;;;;;;13.50;7.60;;;1.60;99.90;;;;;;5063335;28;20058;-96
2021/01/23 10:02:19;;;;;;;13.77;7.30;;;1.50;99.90;;;;;;5055816;28;20075;-94
2021/01/23 10:04:44;;;;;;;20.35;8.32;;;1.60;99.90;;;;;;5047741;28;20068;-93
2021/01/23 10:07:10;;;;;;;17.70;9.30;;;1.60;99.90;;;;;;5043875;28;20045;-93
2021/01/23 10:09:35;;;;;;;14.80;7.50;;;1.50;99.90;;;;;;5038714;28;20633;-93
2021/01/23 10:12:01;;;;;;;15.50;8.85;;;1.60;99.90;;;;;;5046128;28;20028;-95
2021/01/23 10:14:27;;;;;;;15.05;8.15;;;1.50;99.90;;;;;;5047312;28;20464;-94
2021/01/23 10:16:53;;;;;;;16.17;9.70;;;1.50;99.90;;;;;;5040753;28;20063;-94
2021/01/23 10:19:18;;;;;;;19.63;10.38;;;1.60;99.90;;;;;;5041086;28;20036;-94
2021/01/23 10:21:44;;;;;;;23.00;13.23;;;1.60;99.90;;;;;;5054606;28;20032;-93
2021/01/23 10:24:10;;;;;;;21.83;11.23;;;1.60;99.90;;;;;;5054989;28;20040;-96
2021/01/23 10:26:36;;;;;;;18.88;10.20;;;1.60;99.90;;;;;;5052266;28;20072;-94
2021/01/23 10:29:02;;;;;;;21.85;11.88;;;1.60;99.90;;;;;;5046231;28;20026;-95
2021/01/23 10:31:27;;;;;;;19.02;11.38;;;1.60;99.90;;;;;;5047263;28;20140;-93
2021/01/23 10:33:53;;;;;;;17.33;9.73;;;1.70;99.90;;;;;;5051051;28;20028;-94
2021/01/23 10:36:19;;;;;;;16.95;9.32;;;1.70;99.90;;;;;;5049451;28;20029;-94
2021/01/23 10:38:45;;;;;;;11.98;5.90;;;1.70;99.90;;;;;;5046266;28;20061;-90
2021/01/23 10:41:11;;;;;;;14.65;6.30;;;1.70;99.90;;;;;;5044837;28;20037;-94
2021/01/23 10:43:37;;;;;;;11.73;5.57;;;1.80;99.90;;;;;;5048231;28;20056;-94
2021/01/23 10:46:03;;;;;;;9.73;4.50;;;1.80;99.90;;;;;;5058262;28;20044;-93
2021/01/23 10:48:29;;;;;;;8.82;3.83;;;1.80;99.90;;;;;;5056697;28;20029;-93
2021/01/23 10:50:55;;;;;;;6.80;3.10;;;1.80;99.90;;;;;;5056718;28;20060;-94
2021/01/23 10:53:21;;;;;;;6.50;2.42;;;1.80;99.90;;;;;;5056694;28;20029;-94
2021/01/23 10:55:47;;;;;;;8.20;3.42;;;1.80;99.90;;;;;;5057317;28;20025;-92
2021/01/23 10:58:12;;;;;;;14.15;6.03;;;1.80;99.90;;;;;;5057912;28;20025;-93
2021/01/23 11:00:38;;;;;;;16.90;5.88;;;1.70;99.90;;;;;;5056703;28;20029;-94
2021/01/23 11:03:05;;;;;;;9.25;3.58;;;1.80;99.90;;;;;;5044069;28;20025;-94
2021/01/23 11:05:31;;;;;;;3.42;2.15;;;1.80;99.90;;;;;;5050108;28;20033;-93
2021/01/23 11:07:57;;;;;;;4.72;1.85;;;1.80;99.90;;;;;;5053109;28;20024;-93
2021/01/23 11:10:23;;;;;;;8.10;3.17;;;1.80;99.90;;;;;;5048440;28;20025;-95
2021/01/23 11:12:50;;;;;;;8.43;3.45;;;1.90;99.90;;;;;;5053264;28;20021;-94
2021/01/23 11:15:17;;;;;;;6.18;2.60;;;1.90;99.90;;;;;;5054925;28;20028;-94
2021/01/23 11:17:43;;;;;;;3.70;1.52;;;1.90;99.90;;;;;;5054534;28;20029;-94
2021/01/23 11:20:14;;;;;;;3.50;1.83;;;1.90;99.90;;;;;;5054724;28;20052;-93
2021/01/23 11:22:45;;;;;;;2.42;1.48;;;1.90;99.90;;;;;;5054228;28;20036;-93
2021/01/23 11:25:13;;;;;;;4.38;2.00;;;1.90;99.90;;;;;;5054150;28;20017;-92
2021/01/23 11:27:42;;;;;;;2.72;1.67;;;2.00;99.90;;;;;;5054182;28;20033;-93
2021/01/23 11:30:12;;;;;;;7.03;3.42;;;2.00;99.90;;;;;;5044221;28;20551;-93
2021/01/23 11:32:38;;;;;;;3.22;1.80;;;2.10;99.90;;;;;;5034593;28;20144;-93
2021/01/23 11:35:10;;;;;;;4.70;1.80;;;2.10;99.90;;;;;;5042106;28;20040;-93
2021/01/23 11:37:35;;;;;;;10.30;4.90;;;2.10;99.90;;;;;;5054542;28;20396;-93
2021/01/23 11:40:06;;;;;;;8.35;2.97;;;2.10;99.90;;;;;;5056197;28;20025;-95
2021/01/23 11:42:34;;;;;;;10.25;4.00;;;2.10;99.90;;;;;;5059483;28;20090;-96
2021/01/23 11:45:03;;;;;;;6.38;3.25;;;2.10;99.90;;;;;;5048957;28;20045;-95
2021/01/23 11:47:29;;;;;;;5.60;2.28;;;2.10;99.90;;;;;;5061422;28;20502;-96
2021/01/23 11:50:00;;;;;;;6.07;1.83;;;2.20;99.90;;;;;;5069155;28;20016;-96
2021/01/23 11:52:36;;;;;;;3.10;2.08;;;2.20;99.90;;;;;;5072994;28;20068;-96
2021/01/23 12:00:19;;;;;;;4.97;1.30;;;2.30;99.90;;;;;;5019195;28;20054;-95
2021/01/23 12:02:51;;;;;;;3.05;1.25;;;2.30;99.90;;;;;;5016046;28;20021;-94
2021/01/23 12:19:41;;;;;;;4.17;3.63;;;2.30;99.90;;;;;;5020241;28;20046;-93
2021/01/23 12:22:07;;;;;;;2.72;1.65;;;2.30;99.90;;;;;;5011718;28;20067;-93
2021/01/23 12:24:33;;;;;;;2.35;1.60;;;2.20;99.90;;;;;;5012904;28;20022;-94
2021/01/23 12:27:03;;;;;;;4.68;1.75;;;2.20;99.90;;;;;;5015057;28;20037;-93
2021/01/23 12:29:29;;;;;;;3.15;1.83;;;2.10;99.90;;;;;;5013049;28;20030;-93
2021/01/23 12:31:56;;;;;;;2.60;1.60;;;2.10;99.90;;;;;;5012951;28;20041;-94
2021/01/23 12:34:23;;;;;;;2.03;1.67;;;2.10;99.90;;;;;;5016844;28;20026;-94
2021/01/23 12:36:49;;;;;;;2.47;1.63;;;2.10;99.90;;;;;;5032984;28;20038;-94
2021/01/23 12:39:14;;;;;;;3.97;2.17;;;2.10;99.90;;;;;;5016862;28;20028;-93
2021/01/23 12:41:40;;;;;;;1.95;1.60;;;2.00;99.90;;;;;;5017227;28;20116;-94
2021/01/23 12:44:05;;;;;;;4.38;2.13;;;2.00;99.90;;;;;;5016752;28;20075;-93
2021/01/23 12:46:31;;;;;;;3.10;1.63;;;2.00;99.90;;;;;;5033425;28;20100;-93
2021/01/23 12:48:57;;;;;;;2.38;1.65;;;2.00;99.90;;;;;;5016084;28;20120;-94
2021/01/23 12:51:22;;;;;;;1.75;1.20;;;2.00;99.90;;;;;;5016509;28;20033;-93
2021/01/23 12:53:48;;;;;;;3.15;1.80;;;2.00;99.90;;;;;;5036768;28;20029;-92
2021/01/23 12:56:14;;;;;;;2.65;1.40;;;2.00;99.90;;;;;;5039388;28;20064;-93
2021/01/23 12:58:39;;;;;;;1.75;0.90;;;2.00;99.90;;;;;;5039635;28;20028;-92
2021/01/23 13:01:05;;;;;;;3.00;1.58;;;2.10;99.90;;;;;;5039471;28;20384;-92
2021/01/23 13:03:30;;;;;;;1.50;1.27;;;2.20;99.90;;;;;;5055523;28;20029;-92
2021/01/23 13:05:56;;;;;;;1.38;1.25;;;2.20;99.90;;;;;;5039355;28;20047;-95
2021/01/23 13:08:22;;;;;;;1.25;1.13;;;2.30;99.90;;;;;;5040080;28;20242;-95
2021/01/23 13:10:48;;;;;;;2.28;1.13;;;2.40;99.90;;;;;;5039006;28;20025;-91
2021/01/23 13:13:14;;;;;;;2.95;1.65;;;2.50;99.90;;;;;;5039241;28;20029;-93
2021/01/23 13:15:40;;;;;;;2.72;1.80;;;2.60;99.90;;;;;;5038899;28;20032;-95
2021/01/23 13:18:07;;;;;;;1.60;1.33;;;2.80;99.90;;;;;;5036933;28;20048;-94
2021/01/23 13:20:33;;;;;;;1.88;1.35;;;2.90;99.90;;;;;;5055336;28;20171;-95
2021/01/23 13:22:59;;;;;;;1.58;1.42;;;2.90;99.90;;;;;;5039211;28;20028;-94
2021/01/23 13:25:25;;;;;;;2.15;1.50;;;3.00;99.90;;;;;;5060088;28;20048;-95
2021/01/23 13:27:51;;;;;;;2.78;2.15;;;2.90;99.90;;;;;;5045679;28;20025;-95
2021/01/23 13:30:17;;;;;;;3.30;2.30;;;2.90;99.90;;;;;;5048536;28;20060;-94
2021/01/23 13:32:46;;;;;;;3.58;2.33;;;2.90;99.90;;;;;;5047514;28;20028;-94
2021/01/23 13:35:14;;;;;;;4.22;2.83;;;3.00;99.90;;;;;;5045490;28;20043;-95
2021/01/23 13:37:41;;;;;;;5.22;3.03;;;3.10;99.90;;;;;;5045401;28;20025;-93
2021/01/23 13:40:07;;;;;;;4.45;2.67;;;3.10;99.90;;;;;;5040498;28;20029;-93
2021/01/23 13:42:33;;;;;;;5.18;3.00;;;3.20;99.90;;;;;;5034895;28;20034;-94
2021/01/23 13:44:59;;;;;;;6.25;3.13;;;3.40;99.90;;;;;;5037549;28;20024;-94
2021/01/23 13:47:24;;;;;;;5.15;3.53;;;3.50;99.90;;;;;;5038143;28;20523;-94
2021/01/23 13:49:50;;;;;;;3.95;2.85;;;3.60;99.90;;;;;;5038466;28;20495;-94
2021/01/23 13:52:16;;;;;;;7.82;3.20;;;3.70;99.90;;;;;;5037969;28;20037;-94
2021/01/23 13:54:44;;;;;;;3.83;2.67;;;3.60;99.90;;;;;;5037747;28;20021;-94
2021/01/23 13:57:09;;;;;;;4.53;2.80;;;3.60;99.90;;;;;;5038193;28;20472;-94
2021/01/23 13:59:35;;;;;;;7.85;3.42;;;3.40;99.90;;;;;;5042007;28;20039;-95
2021/01/23 14:02:01;;;;;;;7.40;3.30;;;3.30;99.90;;;;;;5044409;28;20226;-94
2021/01/23 14:04:26;;;;;;;3.05;2.38;;;3.10;99.90;;;;;;5051578;28;20025;-93
2021/01/23 14:06:52;;;;;;;3.97;2.90;;;3.00;99.90;;;;;;5053587;28;20037;-94
2021/01/23 14:09:18;;;;;;;5.15;3.28;;;2.90;99.90;;;;;;5044725;28;20074;-94
2021/01/23 14:11:43;;;;;;;4.20;2.05;;;2.90;99.90;;;;;;5039851;28;20032;-95
2021/01/23 14:14:09;;;;;;;4.18;2.80;;;2.80;99.90;;;;;;5038894;28;20028;-95
2021/01/23 14:16:34;;;;;;;4.50;3.08;;;2.80;99.90;;;;;;5037652;28;20041;-95
2021/01/23 14:19:00;;;;;;;3.92;2.80;;;2.70;99.90;;;;;;5037828;28;20454;-96
2021/01/23 14:21:26;;;;;;;5.22;2.92;;;2.70;99.90;;;;;;5038519;28;20345;-94
2021/01/23 14:23:53;;;;;;;5.57;2.85;;;2.70;99.90;;;;;;5038129;28;20033;-93
2021/01/23 14:26:18;;;;;;;5.28;2.92;;;2.70;99.90;;;;;;5038766;28;20032;-96
2021/01/23 14:28:44;;;;;;;7.40;2.97;;;2.70;99.90;;;;;;5042170;28;20044;-95
2021/01/23 14:31:10;;;;;;;6.70;4.07;;;2.70;99.90;;;;;;5039405;28;20029;-95
2021/01/23 14:33:35;;;;;;;6.97;3.97;;;2.60;99.90;;;;;;5039507;28;20025;-96
2021/01/23 14:36:05;;;;;;;12.88;4.13;;;2.60;99.90;;;;;;5038241;28;20403;-95
2021/01/23 14:38:31;;;;;;;8.63;4.07;;;2.50;99.90;;;;;;5038596;28;20092;-95
2021/01/23 14:40:57;;;;;;;5.13;3.25;;;2.50;99.90;;;;;;5038866;28;20025;-93
2021/01/23 14:43:22;;;;;;;11.38;5.47;;;2.50;99.90;;;;;;5038529;28;20025;-93
2021/01/23 14:45:48;;;;;;;6.57;3.25;;;2.50;99.90;;;;;;5039766;28;20044;-92
2021/01/23 14:48:13;;;;;;;4.82;3.33;;;2.40;99.90;;;;;;5039679;28;20032;-95
2021/01/23 14:50:39;;;;;;;7.93;3.70;;;2.40;99.90;;;;;;5039629;28;20452;-94
2021/01/23 14:53:05;;;;;;;5.15;2.83;;;2.40;99.90;;;;;;5039187;28;20025;-94
2021/01/23 14:55:31;;;;;;;4.70;2.88;;;2.40;99.90;;;;;;5039437;28;20035;-94
2021/01/23 14:57:56;;;;;;;7.07;2.97;;;2.50;99.90;;;;;;5038609;28;20025;-95
2021/01/23 15:00:32;;;;;;;6.18;1.63;;;2.50;99.90;;;;;;5038805;28;20124;-95